Time;durP1;ratioP1;P1;durP2;ratioP2;P2;SDS_P1;SDS_P2;PMS_P1;PMS_P2;Temp;Humidity;BMP_temperature;BMP_pressure;BME280_temperature;BME280_humidity;BME280_pressure;Samples;Min_cycle;Max_cycle;Signal;HPM_P1;HPM_P2
2023/03/03 00:00:45;;;;;;;;;62.00;48.00;;;;;5.28;50.29;99023.75;6197560;28;96215;-58
2023/03/03 00:03:48;;;;;;;;;60.60;47.00;;;;;5.24;51.52;99029.44;6189055;28;96221;-57
2023/03/03 00:06:53;;;;;;;;;61.00;47.50;;;;;5.24;51.71;99018.75;6162612;28;96341;-57
2023/03/03 00:09:56;;;;;;;;;57.00;45.20;;;;;5.26;50.54;99023.06;6173048;28;96267;-59
2023/03/03 00:13:00;;;;;;;;;59.00;46.00;;;;;5.22;50.37;99019.94;6159132;28;96487;-58
2023/03/03 00:16:14;;;;;;;;;59.00;46.00;;;;;5.23;50.83;99021.59;6165980;28;96464;-57
2023/03/03 00:19:19;;;;;;;;;58.50;47.50;;;;;5.13;50.50;99013.03;6148296;28;97107;-57
2023/03/03 00:22:29;;;;;;;;;61.00;47.60;;;;;5.08;50.81;99023.44;6157995;28;96343;-58
2023/03/03 00:25:34;;;;;;;;;64.00;49.80;;;;;5.05;50.70;99021.97;6169516;28;96547;-59
2023/03/03 00:28:46;;;;;;;;;59.60;46.00;;;;;5.02;50.78;99005.47;6160226;28;96275;-57
2023/03/03 00:31:49;;;;;;;;;56.60;45.80;;;;;4.95;51.49;99016.06;6158307;28;96612;-57
2023/03/03 00:34:54;;;;;;;;;60.75;47.25;;;;;4.98;51.50;99021.03;6185651;28;96228;-58
2023/03/03 00:38:00;;;;;;;;;57.20;46.00;;;;;4.96;50.94;99011.53;6159152;28;96215;-58
2023/03/03 00:41:11;;;;;;;;;57.20;45.00;;;;;4.95;51.23;99012.53;6173670;28;96269;-57
2023/03/03 00:44:34;;;;;;;;;57.20;44.00;;;;;4.98;51.48;99005.03;6176547;28;96505;-57
2023/03/03 00:47:40;;;;;;;;;62.00;49.60;;;;;5.02;50.77;99006.31;6193363;28;96187;-58
2023/03/03 00:50:44;;;;;;;;;62.25;47.75;;;;;5.02;51.00;99000.97;6193422;28;96262;-57
2023/03/03 00:53:49;;;;;;;;;60.60;48.20;;;;;4.58;50.99;98938.66;6194566;28;96914;-58
2023/03/03 00:56:52;;;;;;;;;60.60;46.80;;;;;4.94;50.96;98992.19;6176679;28;98324;-57
2023/03/03 00:59:56;;;;;;;;;60.60;46.00;;;;;4.88;51.23;98993.78;6175075;28;96795;-58
2023/03/03 01:03:03;;;;;;;;;61.40;47.40;;;;;4.87;51.64;98986.75;6175822;28;96630;-58
2023/03/03 01:06:06;;;;;;;;;55.80;45.00;;;;;4.80;51.43;98975.97;6193086;28;96286;-58
2023/03/03 01:09:11;;;;;;;;;55.50;44.25;;;;;4.79;50.67;98982.31;6193524;28;96396;-57
2023/03/03 01:12:15;;;;;;;;;60.00;47.00;;;;;4.74;50.54;98987.38;6159204;28;96665;-58
2023/03/03 01:15:19;;;;;;;;;57.80;46.00;;;;;4.67;50.79;98978.44;6193325;28;96260;-57
2023/03/03 01:18:22;;;;;;;;;58.80;46.80;;;;;4.61;51.31;98971.16;6176460;28;96669;-57
2023/03/03 01:21:26;;;;;;;;;60.00;47.00;;;;;4.63;50.99;98974.47;6159463;28;96693;-57
2023/03/03 01:24:31;;;;;;;;;61.75;47.00;;;;;4.64;51.31;98969.97;6193612;28;96236;-58
2023/03/03 01:27:36;;;;;;;;;62.80;48.00;;;;;4.60;51.84;98968.66;6193892;28;96242;-58
2023/03/03 01:30:40;;;;;;;;;63.60;49.60;;;;;4.67;51.73;98980.28;6174166;28;96885;-58
2023/03/03 01:33:43;;;;;;;;;66.20;49.60;;;;;4.68;51.83;98980.13;6175749;28;96273;-57
2023/03/03 01:36:47;;;;;;;;;58.00;47.00;;;;;4.67;50.80;98982.94;6156927;28;96645;-57
2023/03/03 01:39:52;;;;;;;;;63.50;48.75;;;;;4.65;51.19;98987.63;6189634;28;96472;-58
2023/03/03 01:42:55;;;;;;;;;57.40;45.00;;;;;4.60;50.77;98966.81;6155904;28;96604;-57
2023/03/03 01:46:29;;;;;;;;;61.60;48.00;;;;;4.46;50.68;98975.63;6187245;28;96217;-57
2023/03/03 01:49:36;;;;;;;;;59.75;46.75;;;;;4.33;50.66;98976.25;6171213;28;96687;-59
2023/03/03 01:52:43;;;;;;;;;58.50;46.00;;;;;4.24;50.59;98969.31;6188019;28;96380;-58
2023/03/03 01:55:51;;;;;;;;;60.25;46.25;;;;;4.17;50.77;98971.03;6190260;28;96893;-58
2023/03/03 01:59:01;;;;;;;;;64.00;50.00;;;;;4.12;50.58;98969.91;6192894;28;96352;-57
2023/03/03 02:02:05;;;;;;;;;63.50;50.00;;;;;4.13;50.40;98968.91;6158895;28;96649;-57
2023/03/03 02:05:10;;;;;;;;;61.75;48.50;;;;;4.15;50.48;98969.56;6174905;28;96666;-57
2023/03/03 02:08:18;;;;;;;;;64.00;50.00;;;;;4.13;50.15;98974.25;6191492;28;96811;-57
2023/03/03 02:11:23;;;;;;;;;59.25;46.00;;;;;4.07;50.30;98965.13;6172726;28;96331;-57
2023/03/03 02:14:27;;;;;;;;;64.00;50.75;;;;;4.08;51.22;98972.13;6190712;28;96299;-57
2023/03/03 02:17:30;;;;;;;;;63.50;50.00;;;;;4.08;50.36;98972.13;6172664;28;96348;-57
2023/03/03 02:20:52;;;;;;;;;60.00;48.00;;;;;4.12;50.55;98981.41;6174200;28;96345;-59
2023/03/03 02:24:04;;;;;;;;;61.00;48.00;;;;;4.12;50.11;98981.41;6174554;28;96346;-57
2023/03/03 02:27:09;;;;;;;;;62.00;49.00;;;;;4.05;50.63;98980.50;6190231;28;96321;-57
2023/03/03 02:30:16;;;;;;;;;62.80;48.80;;;;;4.07;51.28;98983.78;6156905;28;97377;-57
2023/03/03 02:33:20;;;;;;;;;64.60;51.20;;;;;4.11;50.96;98973.59;6174461;28;96334;-57
2023/03/03 02:36:26;;;;;;;;;64.00;50.00;;;;;4.14;50.71;98971.41;6191599;28;97446;-57
2023/03/03 02:39:29;;;;;;;;;62.00;48.40;;;;;4.17;49.87;98970.22;6190936;28;96274;-57
2023/03/03 02:42:34;;;;;;;;;62.00;48.00;;;;;4.16;50.87;98958.69;6189844;28;96262;-58
2023/03/03 02:45:42;;;;;;;;;63.00;49.50;;;;;4.21;50.19;98964.34;6191146;28;96257;-58
2023/03/03 02:48:46;;;;;;;;;64.00;50.00;;;;;4.25;51.19;98970.16;6191217;28;96980;-58
2023/03/03 02:51:50;;;;;;;;;61.80;48.80;;;;;4.16;49.98;98969.38;6189382;28;96895;-57
2023/03/03 02:54:54;;;;;;;;;63.60;51.00;;;;;4.08;51.45;98977.44;6170734;28;96412;-58
2023/03/03 02:57:59;;;;;;;;;62.00;49.00;;;;;3.98;49.94;98968.03;6191118;28;96307;-57
2023/03/03 03:01:02;;;;;;;;;62.00;50.00;;;;;3.88;50.70;98976.25;6172860;28;96259;-58
2023/03/03 03:04:09;;;;;;;;;61.80;48.80;;;;;3.85;50.27;98971.28;6152513;28;98365;-58
2023/03/03 03:07:17;;;;;;;;;64.00;49.80;;;;;3.87;50.58;98982.59;6190316;28;96225;-57
2023/03/03 03:10:20;;;;;;;;;64.80;50.80;;;;;3.82;50.74;98977.78;6171855;28;96442;-58
2023/03/03 03:13:27;;;;;;;;;64.20;50.40;;;;;3.85;50.60;98968.63;6189277;28;96346;-58
2023/03/03 03:16:31;;;;;;;;;61.80;49.20;;;;;3.85;51.11;98968.63;6190534;28;96229;-57
2023/03/03 03:19:34;;;;;;;;;64.00;50.00;;;;;3.75;50.58;98947.53;6191469;28;96324;-59
2023/03/03 03:22:38;;;;;;;;;63.60;50.00;;;;;3.86;50.36;98971.09;6174316;28;96425;-58
2023/03/03 03:25:45;;;;;;;;;65.80;50.00;;;;;3.81;50.38;98972.66;6171103;28;96243;-57
2023/03/03 03:28:56;;;;;;;;;58.40;47.40;;;;;3.61;50.09;98964.28;6172828;28;96425;-57
2023/03/03 03:32:00;;;;;;;;;62.25;48.00;;;;;3.73;50.22;98962.03;6171469;28;96886;-57
2023/03/03 03:35:03;;;;;;;;;64.50;50.00;;;;;3.69;50.82;98963.38;6161514;28;98289;-57
2023/03/03 03:38:07;;;;;;;;;59.60;47.20;;;;;3.61;50.48;98952.78;6150147;28;96639;-57
2023/03/03 03:41:12;;;;;;;;;62.00;48.20;;;;;3.65;51.25;98970.91;6166867;28;96204;-57
2023/03/03 03:44:17;;;;;;;;;61.40;49.40;;;;;3.73;50.63;98965.53;6183083;28;96497;-57
2023/03/03 03:47:20;;;;;;;;;62.00;48.00;;;;;3.72;50.79;98968.34;6186763;28;96325;-57
2023/03/03 03:50:24;;;;;;;;;63.00;48.80;;;;;3.73;50.11;98964.69;6186884;28;96308;-58
2023/03/03 03:53:28;;;;;;;;;62.20;47.80;;;;;3.77;50.11;98965.97;6155193;28;98134;-58
2023/03/03 03:56:31;;;;;;;;;66.00;52.00;;;;;3.74;49.93;98959.19;6152383;28;98328;-58
2023/03/03 03:59:38;;;;;;;;;63.40;50.00;;;;;3.63;50.13;98967.56;6173632;28;97448;-57
2023/03/03 04:02:42;;;;;;;;;66.40;51.80;;;;;3.65;49.90;98973.56;6168614;28;96393;-57
2023/03/03 04:05:49;;;;;;;;;65.50;51.00;;;;;3.53;49.66;98963.47;6145823;28;98378;-59
2023/03/03 04:08:54;;;;;;;;;62.50;48.50;;;;;3.40;49.80;98959.53;6152150;28;96456;-58
2023/03/03 04:11:58;;;;;;;;;64.80;50.00;;;;;3.33;50.03;98961.22;6165190;28;96392;-57
2023/03/03 04:15:09;;;;;;;;;65.60;50.60;;;;;3.33;50.75;98968.41;6153599;28;98486;-59
2023/03/03 04:18:13;;;;;;;;;59.60;48.20;;;;;3.36;49.96;98966.22;6171949;28;97000;-57
2023/03/03 04:21:17;;;;;;;;;63.00;49.33;;;;;3.38;50.03;98960.72;6173935;28;96473;-58
2023/03/03 04:24:21;;;;;;;;;64.40;50.00;;;;;3.38;49.91;98958.03;6189276;28;96269;-58
2023/03/03 04:27:26;;;;;;;;;65.00;51.00;;;;;3.34;49.78;98954.91;6171444;28;96324;-57
2023/03/03 04:30:31;;;;;;;;;62.25;49.00;;;;;3.33;49.50;98958.56;6163983;28;96627;-58
2023/03/03 04:33:36;;;;;;;;;62.00;49.00;;;;;3.37;49.57;98964.41;6151210;28;96811;-58
2023/03/03 04:36:40;;;;;;;;;64.40;51.20;;;;;3.36;49.44;98962.75;6166847;28;96305;-58
2023/03/03 04:39:44;;;;;;;;;64.75;51.00;;;;;3.30;50.59;98969.59;6174327;28;96444;-57
2023/03/03 04:42:48;;;;;;;;;67.50;52.25;;;;;3.25;50.31;98966.59;6148684;28;97300;-59
2023/03/03 04:45:53;;;;;;;;;62.00;47.75;;;;;3.15;50.13;98971.31;6170086;28;96290;-58
2023/03/03 04:48:57;;;;;;;;;66.75;52.00;;;;;3.14;50.15;98969.66;6174917;28;96679;-58
2023/03/03 04:52:02;;;;;;;;;68.00;52.20;;;;;3.12;50.42;98974.34;6174502;28;96972;-58
2023/03/03 04:55:07;;;;;;;;;67.60;53.00;;;;;3.06;50.35;98969.69;6168330;28;96387;-58
2023/03/03 04:58:14;;;;;;;;;67.20;52.80;;;;;3.02;50.39;98971.88;6168546;28;96216;-57
2023/03/03 05:01:20;;;;;;;;;67.20;52.20;;;;;2.98;50.39;98959.06;6174090;28;98334;-58
2023/03/03 05:04:24;;;;;;;;;66.60;53.00;;;;;3.10;50.02;98979.00;6171015;28;96234;-57
2023/03/03 05:07:27;;;;;;;;;69.40;52.00;;;;;2.99;50.03;98958.03;6192121;28;96547;-57
2023/03/03 05:10:30;;;;;;;;;69.00;53.80;;;;;3.05;49.45;98976.84;6174108;28;96214;-57
2023/03/03 05:13:37;;;;;;;;;67.00;52.40;;;;;3.00;49.45;98986.34;6154448;28;98857;-57
2023/03/03 05:16:41;;;;;;;;;66.40;52.60;;;;;2.97;49.61;98981.38;6150504;28;96330;-57
2023/03/03 05:19:45;;;;;;;;;68.25;52.25;;;;;2.96;50.08;98987.69;6146466;28;98628;-56
2023/03/03 05:22:49;;;;;;;;;68.00;53.00;;;;;2.95;50.66;98975.38;6127146;28;98367;-57
2023/03/03 05:25:52;;;;;;;;;69.40;54.00;;;;;2.95;50.09;98980.69;6155030;28;98037;-56
2023/03/03 05:28:55;;;;;;;;;68.00;52.60;;;;;2.88;50.20;98979.75;6160023;28;96521;-57
2023/03/03 05:32:00;;;;;;;;;71.40;57.40;;;;;2.92;50.95;98981.88;6165310;28;96354;-57
2023/03/03 05:35:04;;;;;;;;;71.00;57.00;;;;;2.95;50.76;98988.69;6159221;28;96909;-57
2023/03/03 05:38:07;;;;;;;;;66.25;52.00;;;;;3.03;50.35;98981.50;6144997;28;96681;-57
2023/03/03 05:41:10;;;;;;;;;71.00;53.60;;;;;3.03;50.39;98989.47;6161087;28;96213;-57
2023/03/03 05:44:14;;;;;;;;;71.20;57.40;;;;;3.05;50.33;98997.31;6158919;28;96635;-57
2023/03/03 05:47:19;;;;;;;;;68.80;55.00;;;;;3.14;50.84;99003.44;6135314;28;98409;-56
2023/03/03 05:50:24;;;;;;;;;67.60;53.40;;;;;3.25;51.04;99006.56;6158172;28;96259;-57
2023/03/03 05:53:28;;;;;;;;;72.00;57.75;;;;;3.37;51.19;99009.72;6155746;28;96510;-56
2023/03/03 05:56:31;;;;;;;;;75.00;61.00;;;;;3.47;51.52;99003.13;6146708;28;96338;-57
2023/03/03 05:59:35;;;;;;;;;75.80;61.00;;;;;3.59;51.46;99021.41;6127925;28;99430;-58
2023/03/03 06:02:39;;;;;;;;;76.40;62.80;;;;;3.56;51.99;99003.94;6163231;28;97027;-57
2023/03/03 06:05:43;;;;;;;;;76.00;65.20;;;;;3.78;52.50;99018.31;6140602;28;98535;-57
2023/03/03 06:08:46;;;;;;;;;77.80;68.80;;;;;3.88;52.43;99026.94;6160385;28;98535;-57
2023/03/03 06:11:51;;;;;;;;;75.00;61.00;;;;;3.90;52.67;99014.25;6154330;28;97483;-56
2023/03/03 06:14:55;;;;;;;;;79.00;70.00;;;;;3.99;52.59;99026.53;6144878;28;97398;-58
2023/03/03 06:18:00;;;;;;;;;80.00;69.00;;;;;4.14;52.55;99034.59;6164794;28;96441;-57
2023/03/03 06:21:03;;;;;;;;;78.20;67.20;;;;;4.29;52.24;99032.84;6168073;28;96457;-56
2023/03/03 06:24:07;;;;;;;;;77.40;66.80;;;;;4.36;52.06;99033.78;6163012;28;96783;-56
2023/03/03 06:27:11;;;;;;;;;78.00;68.60;;;;;4.53;52.39;99037.16;6158836;28;96660;-57
2023/03/03 06:30:15;;;;;;;;;79.60;71.20;;;;;4.67;52.04;99045.22;6161680;28;96339;-57
2023/03/03 06:33:20;;;;;;;;;78.20;69.20;;;;;4.72;52.40;99042.81;6163539;28;97057;-57
2023/03/03 06:36:24;;;;;;;;;83.80;73.20;;;;;4.85;51.82;99052.88;6162020;28;98614;-56
2023/03/03 06:39:28;;;;;;;;;83.00;73.00;;;;;4.98;52.19;99055.78;6142250;28;96496;-56
2023/03/03 06:42:31;;;;;;;;;81.00;73.00;;;;;5.09;52.10;99074.03;6183629;28;96361;-56
2023/03/03 06:45:34;;;;;;;;;83.20;70.00;;;;;5.21;52.03;99058.38;6133801;28;98665;-56
2023/03/03 06:48:39;;;;;;;;;86.00;78.20;;;;;5.28;51.35;99053.94;6137331;28;96720;-56
2023/03/03 06:51:45;;;;;;;;;82.40;73.80;;;;;5.31;51.08;99052.75;6146545;28;96638;-56
2023/03/03 06:54:48;;;;;;;;;87.00;75.40;;;;;5.29;50.83;99044.91;6147835;28;96372;-56
2023/03/03 06:57:54;;;;;;;;;82.33;75.33;;;;;5.27;50.97;99041.63;6164757;28;96411;-56
2023/03/03 07:01:00;;;;;;;;;87.80;74.00;;;;;5.32;50.70;99039.22;6164858;28;96328;-57
2023/03/03 07:04:14;;;;;;;;;86.60;77.00;;;;;5.37;50.43;99030.66;6164520;28;96955;-56
2023/03/03 07:07:20;;;;;;;;;85.00;73.00;;;;;5.45;51.13;99038.56;6140433;28;96325;-56
2023/03/03 07:10:26;;;;;;;;;81.60;70.00;;;;;5.42;51.72;99041.63;6140140;28;96439;-58
2023/03/03 07:13:29;;;;;;;;;80.20;70.20;;;;;5.46;52.09;99035.72;6140015;28;96338;-57
2023/03/03 07:16:33;;;;;;;;;80.00;72.50;;;;;5.56;51.70;99032.75;6124902;28;99963;-56
2023/03/03 07:19:39;;;;;;;;;77.00;67.00;;;;;5.62;51.99;99024.78;6164007;28;96292;-57
2023/03/03 07:22:43;;;;;;;;;78.75;65.00;;;;;5.71;51.99;99022.88;6146583;28;96387;-56
2023/03/03 07:25:47;;;;;;;;;77.00;63.00;;;;;6.12;51.18;99022.31;6145374;28;96596;-56
2023/03/03 07:28:55;;;;;;;;;76.40;64.80;;;;;6.70;50.47;99032.75;6164333;28;96272;-57
2023/03/03 07:32:01;;;;;;;;;76.00;64.75;;;;;6.86;50.02;99029.81;6164576;28;96367;-57
2023/03/03 07:35:25;;;;;;;;;73.50;60.50;;;;;6.81;49.80;99026.88;6146368;28;96303;-57
2023/03/03 07:38:37;;;;;;;;;75.20;62.00;;;;;6.87;50.09;99017.22;6129716;28;97002;-56
2023/03/03 07:41:42;;;;;;;;;76.60;68.60;;;;;7.05;49.62;99011.38;6145208;28;96620;-56
2023/03/03 07:44:45;;;;;;;;;79.00;68.75;;;;;7.50;48.45;99001.94;6145293;28;96732;-56
2023/03/03 07:47:49;;;;;;;;;77.00;63.00;;;;;7.81;48.01;99002.28;6145860;28;96332;-57
2023/03/03 07:50:53;;;;;;;;;78.00;67.00;;;;;8.37;46.52;98993.97;6149598;28;96910;-57
2023/03/03 07:54:24;;;;;;;;;77.40;66.00;;;;;8.62;46.28;98985.09;6150411;28;96279;-56
2023/03/03 07:57:35;;;;;;;;;75.40;62.40;;;;;8.72;45.91;98994.63;6161923;28;96266;-57
2023/03/03 08:01:11;;;;;;;;;77.00;64.75;;;;;8.75;45.85;98997.72;6168178;28;96350;-57
2023/03/03 08:04:21;;;;;;;;;74.20;63.20;;;;;9.03;45.08;98987.56;6143315;28;96265;-56
2023/03/03 08:07:31;;;;;;;;;77.67;64.00;;;;;9.77;44.09;99000.59;6126346;28;99236;-57
2023/03/03 08:10:42;;;;;;;;;76.40;67.00;;;;;10.14;43.06;99001.66;6125114;28;98315;-57
2023/03/03 08:13:46;;;;;;;;;79.40;69.20;;;;;9.95;43.27;98991.81;6144472;28;96367;-56
2023/03/03 08:16:49;;;;;;;;;78.60;68.60;;;;;9.77;43.37;98981.75;6145072;28;97507;-56
2023/03/03 08:19:55;;;;;;;;;78.75;69.00;;;;;9.83;44.04;98980.03;6167850;28;96265;-56
2023/03/03 08:22:59;;;;;;;;;85.00;72.00;;;;;9.92;43.40;98984.16;6168324;28;96135;-57
2023/03/03 08:26:03;;;;;;;;;83.50;71.25;;;;;10.07;43.26;98989.28;6167833;28;96437;-56
2023/03/03 08:29:07;;;;;;;;;81.60;74.60;;;;;10.17;43.27;99008.50;6167622;28;96325;-56
2023/03/03 08:32:10;;;;;;;;;77.40;69.00;;;;;10.00;43.63;99005.47;6167764;28;96221;-56
2023/03/03 08:35:14;;;;;;;;;78.20;67.40;;;;;9.90;43.71;99014.00;6167657;28;96421;-56
2023/03/03 08:38:21;;;;;;;;;79.00;68.20;;;;;9.70;44.18;99025.88;6168218;28;96217;-56
2023/03/03 08:41:24;;;;;;;;;77.20;65.40;;;;;9.54;44.44;99024.47;6167602;28;96247;-57
2023/03/03 08:44:27;;;;;;;;;80.00;68.75;;;;;9.45;44.40;99017.69;6167378;28;96236;-56
2023/03/03 08:47:31;;;;;;;;;77.20;67.40;;;;;9.36;44.60;99003.63;6150461;28;96280;-57
2023/03/03 08:50:34;;;;;;;;;81.00;72.60;;;;;9.42;44.53;99012.72;6167063;28;96496;-57
2023/03/03 08:53:39;;;;;;;;;84.60;76.60;;;;;9.39;44.52;99013.13;6167147;28;96407;-56
2023/03/03 08:56:43;;;;;;;;;82.50;75.50;;;;;9.34;44.48;99008.38;6166732;28;96269;-56
2023/03/03 08:59:46;;;;;;;;;84.00;75.00;;;;;9.29;44.33;99021.63;6166543;28;96268;-56
2023/03/03 09:02:50;;;;;;;;;85.40;75.40;;;;;9.07;44.29;98994.19;6167440;28;96779;-56
2023/03/03 09:05:54;;;;;;;;;89.40;77.00;;;;;9.00;45.01;99031.00;6141279;28;96838;-58
2023/03/03 09:08:58;;;;;;;;;90.67;76.67;;;;;8.90;45.20;99029.75;6142527;28;97461;-56
2023/03/03 09:12:15;;;;;;;;;83.00;73.00;;;;;8.75;45.84;99015.72;6142676;28;96390;-56
2023/03/03 09:15:25;;;;;;;;;85.40;76.00;;;;;8.85;45.79;99029.53;6130246;28;98452;-56
2023/03/03 09:18:35;;;;;;;;;82.50;77.00;;;;;9.01;45.55;99035.34;6166318;28;96247;-57
2023/03/03 09:21:38;;;;;;;;;83.00;75.60;;;;;9.12;45.41;99031.19;6164421;28;99741;-56
2023/03/03 09:24:43;;;;;;;;;82.00;73.40;;;;;9.16;45.40;99039.66;6189925;28;96664;-56
2023/03/03 09:27:46;;;;;;;;;79.00;71.00;;;;;9.19;44.94;99034.69;6166447;28;96341;-56
2023/03/03 09:30:51;;;;;;;;;79.60;71.80;;;;;9.24;44.96;99018.75;6166175;28;96363;-56
2023/03/03 09:33:58;;;;;;;;;78.20;68.60;;;;;9.35;44.95;99011.91;6130908;28;96675;-57
2023/03/03 09:37:18;;;;;;;;;77.00;66.40;;;;;9.52;44.90;99007.72;6166126;28;96207;-56
2023/03/03 09:40:45;;;;;;;;;77.00;67.40;;;;;9.61;44.42;98994.84;6165986;28;96330;-56
2023/03/03 09:44:16;;;;;;;;;77.20;68.20;;;;;9.82;44.65;99018.81;6165852;28;96917;-56
2023/03/03 09:47:39;;;;;;;;;76.20;63.20;;;;;9.97;44.39;99014.78;6165719;28;97134;-57
2023/03/03 09:50:52;;;;;;;;;76.25;63.00;;;;;10.04;43.97;99011.22;6141818;28;96292;-56
2023/03/03 09:54:07;;;;;;;;;77.75;68.00;;;;;10.02;44.24;99024.09;6124278;28;96318;-57
2023/03/03 09:57:15;;;;;;;;;73.40;63.00;;;;;10.03;44.10;99018.47;6161423;28;96443;-58
2023/03/03 10:00:31;;;;;;;;;74.60;63.00;;;;;10.00;44.21;99021.63;6165709;28;96643;-56
2023/03/03 10:04:01;;;;;;;;;77.00;68.00;;;;;10.02;44.58;99018.72;6165984;28;97006;-57
2023/03/03 10:07:20;;;;;;;;;77.20;66.60;;;;;10.09;44.40;99011.41;6165322;28;96436;-57
2023/03/03 10:10:44;;;;;;;;;76.80;64.80;;;;;9.96;44.59;99004.25;6147558;28;96454;-57
2023/03/03 10:14:10;;;;;;;;;78.00;66.50;;;;;10.22;43.95;99020.28;6163729;28;96293;-57
2023/03/03 10:17:42;;;;;;;;;76.00;63.20;;;;;10.18;44.21;99016.38;6165432;28;96455;-57
2023/03/03 10:20:56;;;;;;;;;75.20;64.20;;;;;10.22;44.20;99022.13;6165796;28;97136;-57
2023/03/03 10:24:12;;;;;;;;;74.00;61.00;;;;;10.30;43.95;99024.59;6147842;28;97260;-56
2023/03/03 10:27:36;;;;;;;;;77.20;65.40;;;;;10.41;43.49;99016.63;6165553;28;96429;-56
2023/03/03 10:30:53;;;;;;;;;76.75;66.75;;;;;10.40;43.76;99023.09;6131248;28;96339;-57
2023/03/03 10:34:29;;;;;;;;;78.00;65.40;;;;;10.52;43.44;99023.19;6165712;28;96416;-56
2023/03/03 10:37:44;;;;;;;;;77.00;63.00;;;;;10.61;43.27;99032.66;6165037;28;97108;-56
2023/03/03 10:40:55;;;;;;;;;75.60;63.00;;;;;10.46;43.34;99026.75;6164928;28;96965;-56
2023/03/03 10:44:24;;;;;;;;;77.40;68.40;;;;;10.30;43.80;99030.00;6147501;28;96366;-56
2023/03/03 10:47:40;;;;;;;;;79.40;67.00;;;;;10.27;43.83;99025.00;6165373;28;96989;-56
2023/03/03 10:50:54;;;;;;;;;79.00;67.80;;;;;10.32;43.91;99026.03;6164760;28;96403;-56
2023/03/03 10:54:19;;;;;;;;;76.25;64.50;;;;;10.43;43.70;99019.13;6164925;28;96319;-57
2023/03/03 10:57:31;;;;;;;;;81.20;71.40;;;;;10.52;43.76;99030.47;6164467;28;96402;-57
2023/03/03 11:00:41;;;;;;;;;81.20;70.20;;;;;10.50;43.61;99033.38;6165175;28;96989;-58
2023/03/03 11:04:07;;;;;;;;;81.00;73.00;;;;;10.52;43.40;99038.53;6146465;28;96649;-56
2023/03/03 11:07:16;;;;;;;;;85.00;73.00;;;;;10.61;43.30;99042.63;6145919;28;98469;-57
2023/03/03 11:10:46;;;;;;;;;80.60;71.60;;;;;10.57;43.07;99039.53;6164114;28;96405;-56
2023/03/03 11:13:56;;;;;;;;;81.00;72.80;;;;;10.43;43.14;99049.59;6164176;28;96949;-57
2023/03/03 11:17:10;;;;;;;;;90.60;78.20;;;;;10.47;42.86;99047.28;6164556;28;96232;-57
2023/03/03 11:20:30;;;;;;;;;84.75;73.75;;;;;10.33;43.26;99041.16;6146717;28;98652;-56
2023/03/03 11:24:07;;;;;;;;;88.00;79.60;;;;;10.27;43.23;99046.56;6146857;28;96298;-58
2023/03/03 11:27:24;;;;;;;;;91.60;78.80;;;;;10.06;43.67;99057.66;6159470;28;96348;-57
2023/03/03 11:30:58;;;;;;;;;95.25;83.00;;;;;9.80;44.07;99050.50;6145424;28;96658;-57
2023/03/03 11:34:14;;;;;;;;;93.20;79.20;;;;;9.64;44.73;99040.19;6163073;28;97211;-56
2023/03/03 11:37:24;;;;;;;;;84.00;75.40;;;;;9.70;44.43;99037.47;6164491;28;96267;-58
2023/03/03 11:40:32;;;;;;;;;79.80;73.00;;;;;9.73;44.28;99036.22;6153980;28;96233;-57
2023/03/03 11:43:42;;;;;;;;;86.00;71.00;;;;;9.69;44.35;99038.50;6163569;28;96492;-57
2023/03/03 11:46:51;;;;;;;;;83.25;73.00;;;;;9.66;44.48;99035.44;6140163;28;96323;-57
2023/03/03 11:50:01;;;;;;;;;75.80;63.60;;;;;9.56;44.23;99030.50;6140152;28;96274;-59
2023/03/03 11:53:24;;;;;;;;;85.00;74.60;;;;;9.42;44.86;99040.47;6149564;28;98670;-56
2023/03/03 11:56:33;;;;;;;;;94.00;82.00;;;;;9.05;45.69;99038.44;6163756;28;96369;-59
2023/03/03 12:00:10;;;;;;;;;99.00;84.20;;;;;8.94;46.05;99025.63;6164108;28;96258;-56
2023/03/03 12:03:26;;;;;;;;;99.40;86.00;;;;;8.89;46.39;99033.50;6135593;28;96487;-56
2023/03/03 12:06:40;;;;;;;;;95.75;83.00;;;;;8.70;46.61;99035.13;6162727;28;96476;-57
2023/03/03 12:09:55;;;;;;;;;93.20;84.20;;;;;8.71;46.89;99028.72;6163662;28;98465;-57
2023/03/03 12:13:05;;;;;;;;;92.00;80.20;;;;;8.77;46.63;99032.44;6154204;28;96381;-59
2023/03/03 12:16:17;;;;;;;;;90.50;80.50;;;;;8.91;46.09;99032.25;6151427;28;96795;-57
2023/03/03 12:19:29;;;;;;;;;83.40;73.40;;;;;8.89;46.05;99028.94;6138946;28;96767;-57
2023/03/03 12:22:35;;;;;;;;;78.25;69.00;;;;;8.82;45.72;99025.44;6140859;28;98342;-57
2023/03/03 12:25:43;;;;;;;;;79.00;66.00;;;;;8.57;46.12;99019.84;6154038;28;96206;-57
2023/03/03 12:28:53;;;;;;;;;76.50;63.25;;;;;8.49;46.51;99030.78;6160817;28;98434;-57
2023/03/03 12:32:10;;;;;;;;;74.80;60.80;;;;;8.49;46.46;99030.78;6163451;28;96331;-57
2023/03/03 12:35:26;;;;;;;;;68.80;52.80;;;;;8.44;46.43;99032.44;6148860;28;96412;-58
2023/03/03 12:38:38;;;;;;;;;62.00;48.20;;;;;8.57;45.89;99027.91;6143154;28;96352;-57
2023/03/03 12:41:50;;;;;;;;;62.40;48.40;;;;;8.66;45.46;99025.81;6154248;28;96233;-57
2023/03/03 12:45:02;;;;;;;;;60.80;47.00;;;;;8.64;45.79;99026.06;6142940;28;98439;-56
2023/03/03 12:48:12;;;;;;;;;65.50;51.00;;;;;8.50;45.60;99013.59;6160398;28;96931;-56
2023/03/03 12:51:30;;;;;;;;;62.00;47.00;;;;;8.39;45.96;99029.53;6142861;28;96540;-56
2023/03/03 12:54:49;;;;;;;;;61.75;46.25;;;;;8.30;46.24;99015.47;6142911;28;96466;-56
2023/03/03 12:58:04;;;;;;;;;65.00;50.00;;;;;8.32;46.49;99021.44;6147383;28;96920;-57
2023/03/03 13:01:22;;;;;;;;;63.00;48.00;;;;;8.34;46.52;99018.56;6145281;28;96477;-57
2023/03/03 13:04:40;;;;;;;;;58.00;45.00;;;;;8.28;46.76;99004.88;6147262;28;96201;-57
2023/03/03 13:07:52;;;;;;;;;63.60;49.00;;;;;8.17;47.02;99007.34;6143648;28;96325;-56
2023/03/03 13:11:05;;;;;;;;;62.00;48.00;;;;;7.93;47.83;99006.03;6139227;28;97556;-56
2023/03/03 13:14:22;;;;;;;;;58.00;46.00;;;;;7.99;47.84;99009.78;6141751;28;96307;-56
2023/03/03 13:17:31;;;;;;;;;54.00;44.00;;;;;7.99;47.30;99005.22;6154509;28;96626;-57
2023/03/03 13:20:44;;;;;;;;;53.00;41.60;;;;;7.87;46.90;99014.88;6140600;28;96540;-59
2023/03/03 13:23:54;;;;;;;;;49.50;41.00;;;;;7.67;47.72;99004.06;6150344;28;96212;-57
2023/03/03 13:27:04;;;;;;;;;52.00;41.00;;;;;7.76;47.80;99010.13;6140781;28;98509;-57
2023/03/03 13:30:17;;;;;;;;;53.80;42.40;;;;;7.55;47.81;99008.38;6142108;28;96316;-57
2023/03/03 13:33:26;;;;;;;;;56.00;44.00;;;;;7.55;48.42;99018.28;6155356;28;98266;-56
2023/03/03 13:36:38;;;;;;;;;57.40;44.40;;;;;7.64;48.11;99017.91;6144783;28;97734;-57
2023/03/03 13:39:53;;;;;;;;;55.40;43.80;;;;;7.62;48.32;99022.66;6164725;28;96322;-56
2023/03/03 13:43:02;;;;;;;;;56.00;45.00;;;;;7.62;48.27;99016.47;6166062;28;96453;-57
2023/03/03 13:46:15;;;;;;;;;59.75;46.25;;;;;7.61;48.17;99025.53;6144966;28;96386;-56
2023/03/03 13:49:34;;;;;;;;;61.25;46.50;;;;;7.59;48.49;99023.03;6143626;28;96649;-57
2023/03/03 13:52:48;;;;;;;;;57.25;44.50;;;;;7.48;48.52;99020.91;6143175;28;98468;-59
2023/03/03 13:56:05;;;;;;;;;52.00;42.50;;;;;7.35;48.95;99023.53;6169369;28;98620;-59
2023/03/03 13:59:19;;;;;;;;;53.60;41.60;;;;;7.15;49.31;99017.22;6173452;28;96249;-59
2023/03/03 14:02:44;;;;;;;;;55.00;43.00;;;;;7.10;49.44;99011.59;6173518;28;96231;-59
2023/03/03 14:05:50;;;;;;;;;54.60;44.00;;;;;7.13;49.65;99013.91;6146017;28;96550;-60
2023/03/03 14:09:15;;;;;;;;;56.60;42.40;;;;;6.92;50.11;99015.63;6173694;28;96231;-59
2023/03/03 14:12:29;;;;;;;;;54.50;43.75;;;;;6.92;49.93;99025.53;6161640;28;96219;-59
2023/03/03 14:15:36;;;;;;;;;54.00;41.80;;;;;6.86;50.03;99021.75;6172227;28;96238;-59
2023/03/03 14:18:50;;;;;;;;;57.25;44.00;;;;;6.97;49.64;99015.03;6155308;28;96062;-59
2023/03/03 14:22:06;;;;;;;;;49.50;40.00;;;;;7.00;49.16;99005.75;6149037;28;96631;-59
2023/03/03 14:25:12;;;;;;;;;56.20;43.00;;;;;6.99;49.34;99012.97;6154481;28;96756;-59
2023/03/03 14:28:19;;;;;;;;;52.00;42.00;;;;;6.85;49.56;99004.03;6151862;28;96287;-59
2023/03/03 14:31:26;;;;;;;;;51.80;42.00;;;;;6.84;49.48;99002.34;6153500;28;96071;-62
2023/03/03 14:34:39;;;;;;;;;50.25;40.25;;;;;6.86;49.52;99005.69;6162886;28;96587;-62
2023/03/03 14:37:45;;;;;;;;;53.40;43.00;;;;;6.78;49.50;98989.75;6145323;28;96224;-61